KFIT

Fitchburg Municipal Airport

Fitchburg, Massachusetts, USA
METAR KFIT 191806Z AUTO 05006KT 6SM BR OVC009 17/15 A2998 RMK AO2 T01720150
Observed Flight Rules
Sep-19 @ 18:06 UTC (42 minutes ago) Instrument Flight Rules
Wind Visibility Clouds Conditions
50° at 6 knots 6 miles
  • Overcast at 900' AGL
  • Mist
Temperatures Readings
Current 17°C / 63°F
Dewpoint 15°C / 59°F
Humidity 88%
Altimeter 29.98" Hg
Pressure 1015 hPa
Elevation 103
METAR KFIT 191806Z AUTO 05006KT 6SM BR OVC009 17/15 A2998 RMK AO2 T01720150
Observed Flight Rules
Sep-19 @ 18:06 UTC
(42 minutes ago)
IFR
Wind Visibility
50° at 6 knots 6 miles
Clouds
  • Overcast at 900' AGL
Conditions
  • Mist
Temperature Dewpoint
17°C / 63°F 15°C / 59°F
Humidity Altimeter Pressure
88% 29.98" Hg 1015 hPa